Main page
METAR-TAF:

METAR-TAF

Airports :

Lydd Airport

Lydd, England

latitude: 50-57N, longitude: 000-56E, elevation: 3 m

Current weather observation

The report was made 34 minutes ago, at 22:50 UTC
Wind 6 kt from the North
Temperature 12°C
Humidity 88%
Pressure 1000 hPa
Visibility 10 km or more

METAR: EGMD 222250Z AUTO 35006KT 9999 NCD 12/10 Q1000

Time: 00:24 (23:24 UTC)

Forecast

The report was made 3 hours and 29 minutes ago, at 19:55 UTC
Forecast valid from 22 at 21 UTC to 23 at 06 UTC
Wind 4 kt from the East/Northeast
Visibility 10 km or more
no clouds below 1500 m and no cumulonimbus
Temporary
from 22 at 21 UTC to 23 at 06 UTC
Visibility: 8000 m

TAF: EGMD 221955Z 2221/2306 06004KT CAVOK TEMPO 2221/2306 8000

Weather observations and forecasts of more than 4000 airports (METAR and TAF reports).

The available stations are represented by yellow and red dots on the map.

Hover mouse over dot to see the name of the station.

Then click to see weather observations and forecasts.

To change the map : click on the green buttons with a black cross to zoom in, on the green button with a dash to zoom out, or on the green arrows for adjacent maps.


METAR-TAF: